createdAt,value
2022-08-05T00:00:52.167Z,4.88
2022-08-05T00:03:54.370Z,6.65
2022-08-05T00:06:59.551Z,4.80
2022-08-05T00:10:02.142Z,4.40
2022-08-05T00:13:04.573Z,5.10
2022-08-05T00:16:12.135Z,4.88
2022-08-05T00:19:14.598Z,5.10
2022-08-05T00:22:17.949Z,5.97
2022-08-05T00:25:20.232Z,3.92
2022-08-05T00:28:29.592Z,4.78
2022-08-05T00:31:54.222Z,3.97
2022-08-05T00:35:06.559Z,4.75
2022-08-05T00:38:09.869Z,6.70
2022-08-05T00:41:12.339Z,4.50
2022-08-05T00:44:14.787Z,5.53
2022-08-05T00:47:16.898Z,4.72
2022-08-05T00:50:20.879Z,5.50
2022-08-05T00:54:00.085Z,7.10
2022-08-05T00:56:51.574Z,5.35
2022-08-05T00:59:54.392Z,4.05
2022-08-05T01:02:58.242Z,4.60
2022-08-05T01:06:03.841Z,4.18
2022-08-05T01:09:08.012Z,5.38
2022-08-05T01:12:18.154Z,5.90
2022-08-05T01:15:36.027Z,5.63
2022-08-05T01:18:43.406Z,5.45
2022-08-05T01:22:00.089Z,6.85
2022-08-05T01:25:23.944Z,7.07
2022-08-05T01:29:04.376Z,4.55
2022-08-05T01:32:12.428Z,6.25
2022-08-05T01:35:52.125Z,6.35
2022-08-05T01:38:50.836Z,5.28
2022-08-05T01:44:59.179Z,6.53
2022-08-05T01:48:03.818Z,6.68
2022-08-05T01:51:15.009Z,5.53
2022-08-05T01:58:29.870Z,5.68
2022-08-05T02:04:12.147Z,5.43
2022-08-05T02:07:20.226Z,5.05
2022-08-05T02:10:29.011Z,5.50
2022-08-05T02:13:53.987Z,6.07
2022-08-05T02:20:06.749Z,6.75
2022-08-05T02:23:12.143Z,5.70
2022-08-05T02:26:22.369Z,5.15
2022-08-05T02:29:58.770Z,5.70
2022-08-05T02:32:54.442Z,6.00
2022-08-05T02:36:01.249Z,6.38
2022-08-05T02:39:08.854Z,5.90
2022-08-05T02:42:11.683Z,5.93
2022-08-05T02:45:52.622Z,4.93
2022-08-05T02:48:54.171Z,4.75
2022-08-05T02:52:02.745Z,6.22
2022-08-05T02:55:10.835Z,5.30
2022-08-05T02:58:16.950Z,5.80
2022-08-05T03:01:27.156Z,5.50
2022-08-05T03:04:30.134Z,5.47
2022-08-05T03:08:00.372Z,6.85
2022-08-05T03:11:47.611Z,7.13
2022-08-05T03:14:17.445Z,5.40
2022-08-05T03:17:20.190Z,5.85
2022-08-05T03:20:26.413Z,6.15
2022-08-05T03:23:29.783Z,5.72
2022-08-05T03:26:32.810Z,7.57
2022-08-05T03:29:45.666Z,6.57
2022-08-05T03:33:00.217Z,5.72
2022-08-05T03:36:03.576Z,5.68
2022-08-05T03:39:20.058Z,6.47
2022-08-05T03:42:32.276Z,7.40
2022-08-05T03:45:57.129Z,5.95
2022-08-05T03:48:58.252Z,8.82
2022-08-05T03:52:39.071Z,6.33
2022-08-05T03:56:05.239Z,8.07
2022-08-05T03:59:07.324Z,7.60
2022-08-05T04:02:14.968Z,8.63
2022-08-05T04:05:20.288Z,8.48
2022-08-05T04:08:35.156Z,7.63
2022-08-05T04:11:50.933Z,7.20
2022-08-05T04:14:57.705Z,8.25
2022-08-05T04:18:07.185Z,7.97
2022-08-05T04:21:10.881Z,7.78
2022-08-05T04:24:19.345Z,10.05
2022-08-05T04:27:41.516Z,7.15
2022-08-05T04:30:46.197Z,9.10
2022-08-05T04:34:18.672Z,8.50
2022-08-05T04:37:14.006Z,7.70
2022-08-05T04:40:19.293Z,7.28
2022-08-05T04:43:22.240Z,8.15
2022-08-05T04:46:27.956Z,8.32
2022-08-05T04:49:38.836Z,8.27
2022-08-05T04:52:53.178Z,8.15
2022-08-05T04:56:33.627Z,9.10
2022-08-05T04:59:24.174Z,8.15
2022-08-05T05:02:42.022Z,8.25
2022-08-05T05:06:39.919Z,8.40
2022-08-05T05:09:07.684Z,9.65
2022-08-05T05:12:10.168Z,9.63
2022-08-05T05:15:13.783Z,10.80
2022-08-05T05:18:28.657Z,10.85
2022-08-05T05:21:36.067Z,8.70
2022-08-05T05:24:58.063Z,11.25
2022-08-05T05:28:02.588Z,8.88
2022-08-05T05:31:05.735Z,9.93
2022-08-05T05:34:11.443Z,7.60
2022-08-05T05:37:15.366Z,8.98
2022-08-05T05:40:20.442Z,9.88
2022-08-05T05:43:58.372Z,10.95
2022-08-05T05:46:51.181Z,11.00
2022-08-05T05:49:56.727Z,10.82
2022-08-05T05:53:03.497Z,10.93
2022-08-05T05:56:26.020Z,10.60
2022-08-05T05:59:40.278Z,10.02
2022-08-05T06:02:43.918Z,11.90
2022-08-05T06:05:46.713Z,11.48
2022-08-05T06:08:56.675Z,10.55
2022-08-05T06:12:01.782Z,12.38
2022-08-05T06:15:08.022Z,14.02
2022-08-05T06:18:10.757Z,12.48
2022-08-05T06:21:18.613Z,13.07
2022-08-05T06:24:22.535Z,12.77
2022-08-05T06:28:12.551Z,13.63
2022-08-05T06:30:52.195Z,13.00
2022-08-05T06:34:07.509Z,11.70
2022-08-05T06:37:11.283Z,13.77
2022-08-05T06:40:20.535Z,13.73
2022-08-05T06:43:57.634Z,14.63
2022-08-05T06:46:46.053Z,12.43
2022-08-05T06:50:00.632Z,13.15
2022-08-05T06:53:11.837Z,14.52
2022-08-05T06:56:27.149Z,14.10
2022-08-05T06:59:29.506Z,11.73
2022-08-05T07:02:45.650Z,14.10
2022-08-05T07:05:47.842Z,14.75
2022-08-05T07:08:54.782Z,15.30
2022-08-05T07:12:00.439Z,14.57
2022-08-05T07:15:34.634Z,13.20
2022-08-05T07:18:50.754Z,14.18
2022-08-05T07:22:00.760Z,13.50
2022-08-05T07:25:21.956Z,14.63
2022-08-05T07:28:30.842Z,11.65
2022-08-05T07:31:40.640Z,13.93
2022-08-05T07:34:57.739Z,12.85
2022-08-05T07:38:00.250Z,13.40
2022-08-05T07:41:34.958Z,13.93
2022-08-05T07:44:28.659Z,14.52
2022-08-05T07:47:42.012Z,14.18
2022-08-05T07:50:44.624Z,15.30
2022-08-05T07:53:50.514Z,15.10
2022-08-05T07:57:01.878Z,18.48
2022-08-05T08:00:16.759Z,15.40
2022-08-05T08:03:19.080Z,20.50
2022-08-05T08:06:24.011Z,19.25
2022-08-05T08:09:30.898Z,17.65
2022-08-05T08:12:49.342Z,17.77
2022-08-05T08:16:34.905Z,17.98
2022-08-05T08:20:00.476Z,16.33
2022-08-05T08:22:37.085Z,15.15
2022-08-05T08:25:59.004Z,17.85
2022-08-05T08:29:06.068Z,15.57
2022-08-05T08:32:28.110Z,19.75
2022-08-05T08:35:35.255Z,19.73
2022-08-05T08:38:44.049Z,22.15
2022-08-05T08:42:00.000Z,19.00
2022-08-05T08:45:23.433Z,17.60
2022-08-05T08:48:41.467Z,18.33
2022-08-05T08:52:04.052Z,18.98
2022-08-05T08:55:13.048Z,19.02
2022-08-05T08:58:17.313Z,19.70
2022-08-05T09:01:21.425Z,18.65
2022-08-05T09:04:30.417Z,19.70
2022-08-05T09:07:39.783Z,21.98
2022-08-05T09:10:56.361Z,19.33
2022-08-05T09:14:09.610Z,20.50
2022-08-05T09:17:40.411Z,19.80
2022-08-05T09:20:46.057Z,20.23
2022-08-05T09:24:07.873Z,17.20
2022-08-05T09:28:05.388Z,18.60
2022-08-05T09:31:22.907Z,18.58
2022-08-05T09:34:55.568Z,17.17
2022-08-05T09:38:17.389Z,15.90
2022-08-05T09:41:22.260Z,16.65
2022-08-05T09:44:56.323Z,14.85
2022-08-05T09:48:00.445Z,15.55
2022-08-05T09:51:14.934Z,16.08
2022-08-05T09:57:39.540Z,13.70
2022-08-05T10:00:54.347Z,13.77
2022-08-05T10:04:00.529Z,13.60
2022-08-05T10:07:06.142Z,12.60
2022-08-05T10:10:53.864Z,13.98
2022-08-05T10:13:57.057Z,12.60
2022-08-05T10:17:37.814Z,11.85
2022-08-05T10:20:42.867Z,13.27
2022-08-05T10:23:59.799Z,12.73
2022-08-05T10:27:02.788Z,11.43
2022-08-05T10:32:47.910Z,10.23
2022-08-05T10:33:34.246Z,11.82
2022-08-05T10:36:39.883Z,12.25
2022-08-05T10:39:59.048Z,12.55
2022-08-05T10:43:18.335Z,10.60
2022-08-05T10:46:42.650Z,12.95
2022-08-05T10:50:32.364Z,12.60
2022-08-05T10:53:42.652Z,11.55
2022-08-05T10:56:49.487Z,12.15
2022-08-05T11:00:29.848Z,12.23
2022-08-05T11:03:33.758Z,11.35
2022-08-05T11:06:56.471Z,13.65
2022-08-05T11:10:03.942Z,11.30
2022-08-05T11:13:39.963Z,12.75
2022-08-05T11:17:57.418Z,11.52
2022-08-05T11:20:52.668Z,11.35
2022-08-05T11:24:02.974Z,11.35
2022-08-05T11:27:50.760Z,12.35
2022-08-05T11:30:59.952Z,12.13
2022-08-05T11:34:08.174Z,11.25
2022-08-05T11:38:31.029Z,13.90
2022-08-05T11:41:03.537Z,15.65
2022-08-05T11:44:53.328Z,21.83
2022-08-05T11:47:50.412Z,15.02
2022-08-05T11:50:57.306Z,16.40
2022-08-05T11:54:01.655Z,17.63
2022-08-05T11:57:08.417Z,12.80
2022-08-05T12:00:30.359Z,12.10
2022-08-05T12:03:44.179Z,12.73
2022-08-05T12:07:01.272Z,14.65
2022-08-05T12:10:09.621Z,15.10
2022-08-05T12:13:17.410Z,12.90
2022-08-05T12:16:34.875Z,14.50
2022-08-05T12:20:26.465Z,14.25
2022-08-05T12:23:14.958Z,13.20
2022-08-05T12:26:17.614Z,12.90
2022-08-05T12:29:24.723Z,13.23
2022-08-05T12:32:27.016Z,13.55
2022-08-05T12:35:39.449Z,11.70
2022-08-05T12:38:42.374Z,13.93
2022-08-05T12:41:45.911Z,13.35
2022-08-05T12:44:49.162Z,13.40
2022-08-05T12:48:01.528Z,14.07
2022-08-05T12:52:11.031Z,12.23
2022-08-05T12:54:43.801Z,12.85
2022-08-05T12:58:50.507Z,11.25
2022-08-05T13:02:00.180Z,10.25
2022-08-05T13:04:41.790Z,11.00
2022-08-05T13:08:00.587Z,11.10
2022-08-05T13:11:04.146Z,9.48
2022-08-05T13:14:36.334Z,10.52
2022-08-05T13:17:42.230Z,11.82
2022-08-05T13:20:44.796Z,9.30
2022-08-05T13:23:50.595Z,8.05
2022-08-05T13:26:54.659Z,8.23
2022-08-05T13:29:59.376Z,7.30
2022-08-05T13:34:23.604Z,10.50
2022-08-05T13:36:43.774Z,8.75
2022-08-05T13:40:16.501Z,8.88
2022-08-05T13:43:12.088Z,9.00
2022-08-05T13:46:16.227Z,7.38
2022-08-05T13:49:18.597Z,6.85
2022-08-05T13:52:30.159Z,7.50
2022-08-05T13:55:41.139Z,6.50
2022-08-05T13:58:44.874Z,7.90
2022-08-05T14:01:59.236Z,7.20
2022-08-05T14:05:12.040Z,7.15
2022-08-05T14:08:20.774Z,6.82
2022-08-05T14:11:31.251Z,6.57
2022-08-05T14:14:33.906Z,8.43
2022-08-05T14:17:36.386Z,8.00
2022-08-05T14:20:38.946Z,7.05
2022-08-05T14:23:41.117Z,6.82
2022-08-05T14:27:01.978Z,6.70
2022-08-05T14:30:06.981Z,7.65
2022-08-05T14:33:26.076Z,7.35
2022-08-05T14:36:28.469Z,7.60
2022-08-05T14:39:50.272Z,9.55
2022-08-05T14:42:56.493Z,6.97
2022-08-05T14:45:58.997Z,7.00
2022-08-05T14:49:06.346Z,8.77
2022-08-05T14:52:12.242Z,7.75
2022-08-05T14:55:24.791Z,7.40
2022-08-05T14:58:27.211Z,7.70
2022-08-05T15:01:48.509Z,8.20
2022-08-05T15:04:51.611Z,8.68
2022-08-05T15:08:08.602Z,6.57
2022-08-05T15:11:23.383Z,7.70
2022-08-05T15:14:49.987Z,7.07
2022-08-05T15:17:53.262Z,7.90
2022-08-05T15:20:55.642Z,6.80
2022-08-05T15:23:57.867Z,7.13
2022-08-05T15:27:01.014Z,8.48
2022-08-05T15:30:04.285Z,7.10
2022-08-05T15:33:07.271Z,6.75
2022-08-05T15:36:17.389Z,7.17
2022-08-05T15:41:00.647Z,6.30
2022-08-05T15:42:53.549Z,7.75
2022-08-05T15:46:01.362Z,7.60
2022-08-05T15:49:10.089Z,7.55
2022-08-05T15:52:16.706Z,7.45
2022-08-05T15:56:02.706Z,7.53
2022-08-05T15:58:54.463Z,7.88
2022-08-05T16:01:57.849Z,7.97
2022-08-05T16:05:05.254Z,6.20
2022-08-05T16:08:12.372Z,7.65
2022-08-05T16:11:21.023Z,7.57
2022-08-05T16:14:54.343Z,6.65
2022-08-05T16:17:57.832Z,7.57
2022-08-05T16:21:04.112Z,8.10
2022-08-05T16:24:12.813Z,8.25
2022-08-05T16:27:32.228Z,6.82
2022-08-05T16:30:51.030Z,7.15
2022-08-05T16:33:55.009Z,7.65
2022-08-05T16:36:57.258Z,6.80
2022-08-05T16:40:05.058Z,8.63
2022-08-05T16:43:09.541Z,6.85
2022-08-05T16:46:23.932Z,6.82
2022-08-05T16:49:27.047Z,7.00
2022-08-05T16:52:33.689Z,6.93
2022-08-05T16:55:47.087Z,6.85
2022-08-05T16:58:49.719Z,6.57
2022-08-05T17:01:55.964Z,7.45
2022-08-05T17:04:58.607Z,7.03
2022-08-05T17:08:01.060Z,6.80
2022-08-05T17:11:04.181Z,7.22
2022-08-05T17:14:13.099Z,6.80
2022-08-05T17:17:42.802Z,6.15
2022-08-05T17:20:45.335Z,6.95
2022-08-05T17:24:05.270Z,6.90
2022-08-05T17:27:10.029Z,6.65
2022-08-05T17:30:19.002Z,8.05
2022-08-05T17:33:38.835Z,8.23
2022-08-05T17:36:50.623Z,7.97
2022-08-05T17:39:56.018Z,6.93
2022-08-05T17:42:59.945Z,7.10
2022-08-05T17:46:02.452Z,7.15
2022-08-05T17:49:06.644Z,7.55
2022-08-05T17:52:09.450Z,7.32
2022-08-05T17:55:15.362Z,7.22
2022-08-05T17:58:21.623Z,6.95
2022-08-05T18:01:49.236Z,7.15
2022-08-05T18:04:53.592Z,8.43
2022-08-05T18:07:57.322Z,7.47
2022-08-05T18:10:59.820Z,8.80
2022-08-05T18:14:04.240Z,9.23
2022-08-05T18:17:07.130Z,8.02
2022-08-05T18:20:31.618Z,8.38
2022-08-05T18:23:45.728Z,7.20
2022-08-05T18:26:49.471Z,9.43
2022-08-05T18:29:54.592Z,8.13
2022-08-05T18:33:00.279Z,9.32
2022-08-05T18:36:09.188Z,7.60
2022-08-05T18:39:42.070Z,10.27
2022-08-05T18:42:49.563Z,8.55
2022-08-05T18:45:56.202Z,7.60
2022-08-05T18:49:20.681Z,8.55
2022-08-05T18:52:33.661Z,10.77
2022-08-05T18:58:40.418Z,8.80
2022-08-05T19:01:48.175Z,9.25
2022-08-05T19:06:05.456Z,9.75
2022-08-05T19:08:30.577Z,9.05
2022-08-05T19:11:37.164Z,8.93
2022-08-05T19:15:00.916Z,9.88
2022-08-05T19:18:10.430Z,9.75
2022-08-05T19:21:16.095Z,9.07
2022-08-05T19:24:18.534Z,10.48
2022-08-05T19:27:37.423Z,8.70
2022-08-05T19:30:44.729Z,8.20
2022-08-05T19:33:56.343Z,8.38
2022-08-05T19:36:59.554Z,8.98
2022-08-05T19:40:02.480Z,8.63
2022-08-05T19:43:10.747Z,9.32
2022-08-05T19:46:34.843Z,9.13
2022-08-05T19:49:37.494Z,10.70
2022-08-05T19:52:40.866Z,10.02
2022-08-05T19:56:14.955Z,10.55
2022-08-05T19:59:51.136Z,8.77
2022-08-05T20:02:32.335Z,9.98
2022-08-05T20:05:43.376Z,10.20
2022-08-05T20:08:53.557Z,10.10
2022-08-05T20:11:56.396Z,9.70
2022-08-05T20:15:00.912Z,10.77
2022-08-05T20:18:10.893Z,10.05
2022-08-05T20:21:28.016Z,9.30
2022-08-05T20:24:34.498Z,10.90
2022-08-05T20:27:41.908Z,12.25
2022-08-05T20:30:44.478Z,10.95
2022-08-05T20:33:47.502Z,10.25
2022-08-05T20:36:50.009Z,10.35
2022-08-05T20:39:52.300Z,11.35
2022-08-05T20:43:00.663Z,9.80
2022-08-05T20:46:02.823Z,9.77
2022-08-05T20:49:06.284Z,9.68
2022-08-05T20:52:12.329Z,10.27
2022-08-05T20:55:55.161Z,10.35
2022-08-05T20:58:37.728Z,9.38
2022-08-05T21:01:39.992Z,9.05
2022-08-05T21:04:43.287Z,8.90
2022-08-05T21:07:51.873Z,9.40
2022-08-05T21:10:54.615Z,10.25
2022-08-05T21:14:00.582Z,9.35
2022-08-05T21:17:05.435Z,12.18
2022-08-05T21:20:10.305Z,8.45
2022-08-05T21:23:14.203Z,8.60
2022-08-05T21:26:16.416Z,9.32
2022-08-05T21:29:19.883Z,6.95
2022-08-05T21:32:29.875Z,8.35
2022-08-05T21:35:55.938Z,7.00
2022-08-05T21:38:56.814Z,8.45
2022-08-05T21:42:02.219Z,10.27
2022-08-05T21:45:05.095Z,8.43
2022-08-05T21:48:13.499Z,8.30
2022-08-05T21:52:15.400Z,8.07
2022-08-05T21:54:38.807Z,9.27
2022-08-05T21:57:42.750Z,10.57
2022-08-05T22:00:51.025Z,8.65
2022-08-05T22:03:54.187Z,7.82
2022-08-05T22:06:57.231Z,9.45
2022-08-05T22:10:04.514Z,11.05
2022-08-05T22:13:09.182Z,13.02
2022-08-05T22:16:41.929Z,10.80
2022-08-05T22:20:01.553Z,10.57
2022-08-05T22:24:01.282Z,12.68
2022-08-05T22:27:17.240Z,11.68
2022-08-05T22:30:20.858Z,12.00
2022-08-05T22:33:57.323Z,11.00
2022-08-05T22:36:45.642Z,11.65
2022-08-05T22:39:51.087Z,10.85
2022-08-05T22:42:58.542Z,10.88
2022-08-05T22:46:03.547Z,12.18
2022-08-05T22:50:17.611Z,10.40
2022-08-05T22:52:34.908Z,11.00
2022-08-05T22:55:57.294Z,11.37
2022-08-05T22:59:03.114Z,11.00
2022-08-05T23:02:07.737Z,8.63
2022-08-05T23:05:10.227Z,8.27
2022-08-05T23:08:12.623Z,10.52
2022-08-05T23:11:16.685Z,11.85
2022-08-05T23:14:22.540Z,9.93
2022-08-05T23:17:37.963Z,8.55
2022-08-05T23:20:56.817Z,9.52
2022-08-05T23:24:00.762Z,8.90
2022-08-05T23:27:06.078Z,9.95
2022-08-05T23:30:08.718Z,7.75
2022-08-05T23:33:16.106Z,8.45
2022-08-05T23:36:28.252Z,7.85
2022-08-05T23:39:32.540Z,10.23
2022-08-05T23:42:53.822Z,10.30
2022-08-05T23:45:56.721Z,7.68
2022-08-05T23:49:02.084Z,8.75
2022-08-05T23:52:27.614Z,9.07
2022-08-05T23:55:31.205Z,9.07
2022-08-05T23:58:34.020Z,7.18
